Time,TemperatureF,DewpointF,PressureIn,WindDirection,WindDirectionDegrees,WindSpeedMPH,WindSpeedGustMPH,Humidity,HourlyPrecipIn,Conditions,Clouds,dailyrainin,SolarRadiationWatts/m^2,SoftwareType,DateUTC
2013-04-23 00:01:00,28.2,26.2,30.28,NNW,343,14.0,14.0,92,0.00,,,0.11,0,Wunderground v.1.15,2013-04-23 05:01:00,
2013-04-23 00:06:00,28.2,26.2,30.28,North,355,15.0,15.0,92,0.00,,,0.00,0,Wunderground v.1.15,2013-04-23 05:06:00,
2013-04-23 00:11:00,28.2,25.9,30.28,NNW,344,12.0,15.0,91,0.00,,,0.00,0,Wunderground v.1.15,2013-04-23 05:11:00,
2013-04-23 00:16:00,28.2,25.9,30.27,NNW,344,13.0,15.0,91,0.00,,,0.00,0,Wunderground v.1.15,2013-04-23 05:16:00,
2013-04-23 00:21:00,28.1,25.8,30.27,North,355,13.0,13.0,91,0.00,,,0.00,0,Wunderground v.1.15,2013-04-23 05:21:00,
2013-04-23 00:26:00,28.1,25.8,30.25,NNW,344,14.0,14.0,91,0.00,,,0.00,0,Wunderground v.1.15,2013-04-23 05:26:00,
2013-04-23 00:32:00,28.1,25.8,30.25,North,355,8.0,10.0,91,0.00,,,0.00,0,Wunderground v.1.15,2013-04-23 05:32:00,
2013-04-23 00:37:00,28.1,25.8,30.25,North,355,6.0,17.0,91,0.00,,,0.00,0,Wunderground v.1.15,2013-04-23 05:37:00,
2013-04-23 00:42:00,28.1,25.8,30.26,NNW,346,10.0,10.0,91,0.00,,,0.00,0,Wunderground v.1.15,2013-04-23 05:42:00,
2013-04-23 00:48:00,28.1,25.8,30.27,NNW,337,7.0,17.0,91,0.00,,,0.00,0,Wunderground v.1.15,2013-04-23 05:48:00,
2013-04-23 00:53:00,28.1,25.8,30.27,North,355,13.0,13.0,91,0.00,,,0.00,0,Wunderground v.1.15,2013-04-23 05:53:00,
2013-04-23 00:58:00,28.1,25.8,30.27,North,5,8.0,13.0,91,0.00,,,0.00,0,Wunderground v.1.15,2013-04-23 05:58:00,
2013-04-23 01:03:00,28.1,25.8,30.27,NNE,17,13.0,13.0,91,0.00,,,0.00,0,Wunderground v.1.15,2013-04-23 06:03:00,
2013-04-23 01:08:00,28.1,25.8,30.27,North,5,10.0,13.0,91,0.00,,,0.00,0,Wunderground v.1.15,2013-04-23 06:08:00,
2013-04-23 01:13:00,28.1,25.8,30.25,North,350,9.0,15.0,91,0.00,,,0.00,0,Wunderground v.1.15,2013-04-23 06:13:00,
2013-04-23 01:18:00,28.0,25.7,30.24,North,349,10.0,15.0,91,0.00,,,0.00,0,Wunderground v.1.15,2013-04-23 06:18:00,
2013-04-23 01:23:00,27.9,25.6,30.24,North,355,17.0,17.0,91,0.00,,,0.00,0,Wunderground v.1.15,2013-04-23 06:23:00,
2013-04-23 01:29:00,27.8,25.5,30.24,North,350,13.0,17.0,91,0.00,,,0.00,0,Wunderground v.1.15,2013-04-23 06:29:00,
2013-04-23 01:34:00,27.8,25.5,30.23,NNW,346,14.0,16.0,91,0.00,,,0.00,0,Wunderground v.1.15,2013-04-23 06:34:00,
2013-04-23 01:39:00,27.7,25.4,30.23,North,360,14.0,17.0,91,0.00,,,0.00,0,Wunderground v.1.15,2013-04-23 06:39:00,
2013-04-23 01:45:00,27.6,25.3,30.23,NNW,337,14.0,15.0,91,0.00,,,0.00,0,Wunderground v.1.15,2013-04-23 06:45:00,
2013-04-23 01:50:00,27.6,25.3,30.24,North,350,10.0,12.0,91,0.00,,,0.00,0,Wunderground v.1.15,2013-04-23 06:50:00,
2013-04-23 01:55:00,27.6,25.3,30.25,NNW,343,18.0,18.0,91,0.00,,,0.00,0,Wunderground v.1.15,2013-04-23 06:55:00,
2013-04-23 02:00:00,27.6,25.3,30.24,NNW,336,18.0,18.0,91,0.00,,,0.00,0,Wunderground v.1.15,2013-04-23 07:00:00,
2013-04-23 02:05:00,27.7,25.4,30.25,North,355,12.0,22.0,91,0.00,,,0.00,0,Wunderground v.1.15,2013-04-23 07:05:00,
2013-04-23 02:10:00,27.7,25.4,30.26,NW,315,13.0,16.0,91,0.00,,,0.00,0,Wunderground v.1.15,2013-04-23 07:10:00,
2013-04-23 02:15:00,27.7,25.4,30.26,NNW,332,13.0,18.0,91,0.00,,,0.00,0,Wunderground v.1.15,2013-04-23 07:15:00,
2013-04-23 02:20:00,27.6,25.1,30.26,NNW,346,19.0,20.0,90,0.00,,,0.00,0,Wunderground v.1.15,2013-04-23 07:20:00,
2013-04-23 02:25:00,27.6,25.3,30.25,NNW,348,11.0,21.0,91,0.00,,,0.00,0,Wunderground v.1.15,2013-04-23 07:25:00,
2013-04-23 02:30:00,27.6,25.3,30.25,North,355,8.0,12.0,91,0.00,,,0.00,0,Wunderground v.1.15,2013-04-23 07:30:00,
2013-04-23 02:35:00,27.5,25.2,30.25,North,5,14.0,20.0,91,0.00,,,0.00,0,Wunderground v.1.15,2013-04-23 07:35:00,
2013-04-23 02:40:00,27.5,25.2,30.25,NNW,346,14.0,15.0,91,0.00,,,0.00,0,Wunderground v.1.15,2013-04-23 07:40:00,
2013-04-23 02:45:00,27.3,24.8,30.24,NNW,331,13.0,19.0,90,0.00,,,0.00,0,Wunderground v.1.15,2013-04-23 07:45:00,
2013-04-23 02:50:00,27.2,24.7,30.25,NNW,337,12.0,13.0,90,0.00,,,0.00,0,Wunderground v.1.15,2013-04-23 07:50:00,
2013-04-23 02:55:00,27.2,24.7,30.27,NNW,343,11.0,17.0,90,0.00,,,0.00,0,Wunderground v.1.15,2013-04-23 07:55:00,
2013-04-23 03:00:00,27.0,24.5,30.26,NNE,15,12.0,15.0,90,0.00,,,0.00,0,Wunderground v.1.15,2013-04-23 08:00:00,
2013-04-23 03:05:00,26.9,24.4,30.24,North,355,10.0,17.0,90,0.00,,,0.00,0,Wunderground v.1.15,2013-04-23 08:05:00,
2013-04-23 03:10:00,26.7,23.9,30.24,NNW,342,8.0,11.0,89,0.00,,,0.00,0,Wunderground v.1.15,2013-04-23 08:10:00,
2013-04-23 03:15:00,26.5,23.7,30.24,NNW,342,11.0,21.0,89,0.00,,,0.00,0,Wunderground v.1.15,2013-04-23 08:15:00,
2013-04-23 03:20:00,26.3,23.5,30.24,NNW,336,15.0,16.0,89,0.00,,,0.00,0,Wunderground v.1.15,2013-04-23 08:20:00,
2013-04-23 03:25:00,26.2,23.1,30.24,North,355,11.0,17.0,88,0.00,,,0.00,0,Wunderground v.1.15,2013-04-23 08:25:00,
2013-04-23 03:30:00,26.0,22.9,30.24,NNW,348,13.0,13.0,88,0.00,,,0.00,0,Wunderground v.1.15,2013-04-23 08:30:00,
2013-04-23 03:35:00,25.8,22.7,30.24,NNW,345,19.0,20.0,88,0.00,,,0.00,0,Wunderground v.1.15,2013-04-23 08:35:00,
2013-04-23 03:40:00,25.7,22.4,30.24,NNE,18,9.0,13.0,87,0.00,,,0.00,0,Wunderground v.1.15,2013-04-23 08:40:00,
2013-04-23 03:45:00,25.6,22.3,30.24,North,360,6.0,17.0,87,0.00,,,0.00,0,Wunderground v.1.15,2013-04-23 08:45:00,
2013-04-23 03:50:00,25.6,22.3,30.25,North,355,8.0,9.0,87,0.00,,,0.00,0,Wunderground v.1.15,2013-04-23 08:50:00,
2013-04-23 03:55:00,25.5,21.9,30.24,NNE,14,13.0,15.0,86,0.00,,,0.00,0,Wunderground v.1.15,2013-04-23 08:55:00,
2013-04-23 04:00:00,25.5,21.9,30.24,NNE,14,7.0,13.0,86,0.00,,,0.00,0,Wunderground v.1.15,2013-04-23 09:00:00,
2013-04-23 04:05:00,25.4,21.8,30.25,NNE,12,11.0,16.0,86,0.00,,,0.00,0,Wunderground v.1.15,2013-04-23 09:05:00,
2013-04-23 04:10:00,25.3,21.7,30.25,NNE,16,8.0,9.0,86,0.00,,,0.00,0,Wunderground v.1.15,2013-04-23 09:10:00,
2013-04-23 04:15:00,25.2,21.6,30.25,North,10,7.0,12.0,86,0.00,,,0.00,0,Wunderground v.1.15,2013-04-23 09:15:00,
2013-04-23 04:20:00,25.2,21.6,30.25,North,351,8.0,11.0,86,0.00,,,0.00,0,Wunderground v.1.15,2013-04-23 09:20:00,
2013-04-23 04:25:00,25.1,21.5,30.25,NNW,344,12.0,14.0,86,0.00,,,0.00,0,Wunderground v.1.15,2013-04-23 09:25:00,
2013-04-23 04:30:00,24.9,21.3,30.25,NW,325,8.0,9.0,86,0.00,,,0.00,0,Wunderground v.1.15,2013-04-23 09:30:00,
2013-04-23 04:35:00,24.8,21.2,30.25,North,350,6.0,10.0,86,0.00,,,0.00,0,Wunderground v.1.15,2013-04-23 09:35:00,
2013-04-23 04:40:00,24.7,21.1,30.25,NNW,331,5.0,6.0,86,0.00,,,0.00,0,Wunderground v.1.15,2013-04-23 09:40:00,
2013-04-23 04:45:00,24.6,21.0,30.25,NNW,333,9.0,11.0,86,0.00,,,0.00,0,Wunderground v.1.15,2013-04-23 09:45:00,
2013-04-23 04:50:00,24.5,20.9,30.25,North,355,8.0,10.0,86,0.00,,,0.00,0,Wunderground v.1.15,2013-04-23 09:50:00,
2013-04-23 04:55:00,24.3,20.7,30.25,North,351,6.0,11.0,86,0.00,,,0.00,0,Wunderground v.1.15,2013-04-23 09:55:00,
2013-04-23 05:00:00,24.2,20.6,30.25,NNW,345,4.0,6.0,86,0.00,,,0.00,0,Wunderground v.1.15,2013-04-23 10:00:00,
2013-04-23 05:05:00,24.1,20.8,30.24,NNW,345,7.0,10.0,87,0.00,,,0.00,0,Wunderground v.1.15,2013-04-23 10:05:00,
2013-04-23 05:10:00,24.0,20.7,30.24,NNW,336,7.0,8.0,87,0.00,,,0.00,0,Wunderground v.1.15,2013-04-23 10:10:00,
2013-04-23 05:15:00,24.0,20.7,30.25,NNW,328,3.0,9.0,87,0.00,,,0.00,0,Wunderground v.1.15,2013-04-23 10:15:00,
2013-04-23 05:20:00,23.8,20.5,30.25,WNW,300,6.0,6.0,87,0.00,,,0.00,0,Wunderground v.1.15,2013-04-23 10:20:00,
2013-04-23 05:25:00,23.6,20.3,30.25,NW,326,7.0,7.0,87,0.00,,,0.00,0,Wunderground v.1.15,2013-04-23 10:25:00,
2013-04-23 05:30:00,23.4,20.4,30.25,NW,309,2.0,4.0,88,0.00,,,0.00,0,Wunderground v.1.15,2013-04-23 10:30:00,
2013-04-23 05:35:00,23.3,20.3,30.25,NNW,332,4.0,10.0,88,0.00,,,0.00,0,Wunderground v.1.15,2013-04-23 10:35:00,
2013-04-23 05:40:00,23.3,20.3,30.25,NNW,348,5.0,7.0,88,0.00,,,0.00,0,Wunderground v.1.15,2013-04-23 10:40:00,
2013-04-23 05:45:00,23.3,20.5,30.24,NNW,346,5.0,13.0,89,0.00,,,0.00,0,Wunderground v.1.15,2013-04-23 10:45:00,
2013-04-23 05:50:00,23.3,20.5,30.24,NNW,340,7.0,8.0,89,0.00,,,0.00,0,Wunderground v.1.15,2013-04-23 10:50:00,
2013-04-23 05:55:00,23.2,20.4,30.23,NNW,331,8.0,12.0,89,0.00,,,0.00,0,Wunderground v.1.15,2013-04-23 10:55:00,
2013-04-23 06:00:00,23.1,20.3,30.24,NNW,334,5.0,7.0,89,0.00,,,0.00,0,Wunderground v.1.15,2013-04-23 11:00:00,
2013-04-23 06:05:00,23.1,20.3,30.24,NNW,339,7.0,11.0,89,0.00,,,0.00,0,Wunderground v.1.15,2013-04-23 11:05:00,
2013-04-23 06:10:00,23.1,20.3,30.24,North,5,9.0,9.0,89,0.00,,,0.00,0,Wunderground v.1.15,2013-04-23 11:10:00,
2013-04-23 06:15:00,23.0,20.2,30.24,NW,321,7.0,11.0,89,0.00,,,0.00,0,Wunderground v.1.15,2013-04-23 11:15:00,
2013-04-23 06:20:00,22.9,20.1,30.24,NNW,329,5.0,8.0,89,0.00,,,0.00,0,Wunderground v.1.15,2013-04-23 11:20:00,
2013-04-23 06:25:00,22.8,20.0,30.25,NNW,336,6.0,9.0,89,0.00,,,0.00,0,Wunderground v.1.15,2013-04-23 11:25:00,
2013-04-23 06:30:00,22.7,19.9,30.25,NNW,331,7.0,13.0,89,0.00,,,0.00,0,Wunderground v.1.15,2013-04-23 11:30:00,
2013-04-23 06:35:00,22.6,19.8,30.24,NNW,340,6.0,13.0,89,0.00,,,0.00,0,Wunderground v.1.15,2013-04-23 11:35:00,
2013-04-23 06:40:00,22.4,19.6,30.24,NNW,336,7.0,7.0,89,0.00,,,0.00,0,Wunderground v.1.15,2013-04-23 11:40:00,
2013-04-23 06:45:00,22.4,19.6,30.25,NNW,344,11.0,11.0,89,0.00,,,0.00,0,Wunderground v.1.15,2013-04-23 11:45:00,
2013-04-23 06:50:00,22.4,19.6,30.25,NNW,340,5.0,8.0,89,0.00,,,0.00,9,Wunderground v.1.15,2013-04-23 11:50:00,
2013-04-23 06:55:00,22.4,19.6,30.26,NW,325,2.0,13.0,89,0.00,,,0.00,14,Wunderground v.1.15,2013-04-23 11:55:00,
2013-04-23 07:00:00,22.3,19.6,30.26,WNW,302,4.0,7.0,89,0.00,,,0.00,16,Wunderground v.1.15,2013-04-23 12:00:00,
2013-04-23 07:05:00,22.2,19.5,30.25,NNW,331,7.0,10.0,89,0.00,,,0.00,26,Wunderground v.1.15,2013-04-23 12:05:00,
2013-04-23 07:10:00,22.1,19.1,30.25,NNW,331,4.0,6.0,88,0.00,,,0.00,19,Wunderground v.1.15,2013-04-23 12:10:00,
2013-04-23 07:15:00,22.0,19.0,30.25,NNW,340,4.0,8.0,88,0.00,,,0.00,25,Wunderground v.1.15,2013-04-23 12:15:00,
2013-04-23 07:20:00,21.9,18.9,30.25,NNW,337,3.0,6.0,88,0.00,,,0.00,47,Wunderground v.1.15,2013-04-23 12:20:00,
2013-04-23 07:25:00,21.6,18.6,30.26,NNW,327,5.0,8.0,88,0.00,,,0.00,54,Wunderground v.1.15,2013-04-23 12:25:00,
2013-04-23 07:30:00,21.4,18.4,30.26,NW,324,2.0,6.0,88,0.00,,,0.00,98,Wunderground v.1.15,2013-04-23 12:30:00,
2013-04-23 07:35:00,21.3,18.3,30.26,NW,324,5.0,6.0,88,0.00,,,0.00,83,Wunderground v.1.15,2013-04-23 12:35:00,
2013-04-23 07:40:00,21.1,18.1,30.26,NW,322,5.0,5.0,88,0.00,,,0.00,163,Wunderground v.1.15,2013-04-23 12:40:00,
2013-04-23 07:45:00,21.2,18.2,30.27,NW,321,4.0,6.0,88,0.00,,,0.00,155,Wunderground v.1.15,2013-04-23 12:45:00,
2013-04-23 07:50:00,21.2,18.2,30.26,NW,317,4.0,4.0,88,0.00,,,0.00,97,Wunderground v.1.15,2013-04-23 12:50:00,
2013-04-23 07:55:00,21.1,18.1,30.26,NW,317,4.0,6.0,88,0.00,,,0.00,216,Wunderground v.1.15,2013-04-23 12:55:00,
2013-04-23 08:00:00,21.4,18.4,30.25,NW,320,5.0,7.0,88,0.00,,,0.00,207,Wunderground v.1.15,2013-04-23 13:00:00,
2013-04-23 08:05:00,21.6,18.6,30.26,NW,325,5.0,8.0,88,0.00,,,0.00,188,Wunderground v.1.15,2013-04-23 13:05:00,
2013-04-23 08:10:00,21.7,18.7,30.26,NNW,333,5.0,7.0,88,0.00,,,0.00,272,Wunderground v.1.15,2013-04-23 13:10:00,
2013-04-23 08:15:00,21.9,18.9,30.26,NNW,333,4.0,11.0,88,0.00,,,0.00,322,Wunderground v.1.15,2013-04-23 13:15:00,
2013-04-23 08:20:00,22.2,19.2,30.26,NNW,340,7.0,9.0,88,0.00,,,0.00,397,Wunderground v.1.15,2013-04-23 13:20:00,
2013-04-23 08:25:00,22.5,19.5,30.26,NW,324,9.0,13.0,88,0.00,,,0.00,278,Wunderground v.1.15,2013-04-23 13:25:00,
2013-04-23 08:30:00,22.5,19.5,30.25,NW,305,10.0,11.0,88,0.00,,,0.00,239,Wunderground v.1.15,2013-04-23 13:30:00,
2013-04-23 08:36:00,22.5,19.5,30.26,NNW,336,7.0,12.0,88,0.00,,,0.00,209,Wunderground v.1.15,2013-04-23 13:36:00,
2013-04-23 08:41:00,22.3,19.3,30.26,NNW,340,6.0,7.0,88,0.00,,,0.00,197,Wunderground v.1.15,2013-04-23 13:41:00,
2013-04-23 08:45:00,22.2,19.2,30.26,NNW,342,4.0,9.0,88,0.00,,,0.00,183,Wunderground v.1.15,2013-04-23 13:45:00,
2013-04-23 08:51:00,22.2,19.2,30.26,NNW,338,9.0,10.0,88,0.00,,,0.00,162,Wunderground v.1.15,2013-04-23 13:51:00,
2013-04-23 08:55:00,22.3,19.3,30.26,NNW,340,10.0,12.0,88,0.00,,,0.00,278,Wunderground v.1.15,2013-04-23 13:55:00,
2013-04-23 09:00:00,22.4,19.1,30.26,NNW,348,7.0,11.0,87,0.00,,,0.00,369,Wunderground v.1.15,2013-04-23 14:00:00,
2013-04-23 09:05:00,22.6,19.3,30.26,North,360,11.0,13.0,87,0.00,,,0.00,290,Wunderground v.1.15,2013-04-23 14:05:00,
2013-04-23 09:10:00,22.7,19.4,30.25,NNW,344,9.0,12.0,87,0.00,,,0.00,311,Wunderground v.1.15,2013-04-23 14:10:00,
2013-04-23 09:15:00,22.9,19.3,30.26,NNW,330,9.0,15.0,86,0.00,,,0.00,345,Wunderground v.1.15,2013-04-23 14:15:00,
2013-04-23 09:20:00,23.1,19.5,30.26,North,355,13.0,13.0,86,0.00,,,0.00,367,Wunderground v.1.15,2013-04-23 14:20:00,
2013-04-23 09:25:00,23.2,19.6,30.27,NNW,332,11.0,14.0,86,0.00,,,0.00,332,Wunderground v.1.15,2013-04-23 14:25:00,
2013-04-23 09:31:00,23.2,19.6,30.26,NNW,328,7.0,12.0,86,0.00,,,0.00,406,Wunderground v.1.15,2013-04-23 14:31:00,
2013-04-23 09:36:00,23.5,19.9,30.26,NNW,337,7.0,16.0,86,0.00,,,0.00,381,Wunderground v.1.15,2013-04-23 14:36:00,
2013-04-23 09:41:00,23.4,19.6,30.25,North,355,14.0,16.0,85,0.00,,,0.00,408,Wunderground v.1.15,2013-04-23 14:41:00,
2013-04-23 09:46:00,23.7,20.1,30.25,NNW,347,11.0,16.0,86,0.00,,,0.00,396,Wunderground v.1.15,2013-04-23 14:46:00,
2013-04-23 09:51:00,23.8,19.9,30.25,NNW,333,10.0,13.0,85,0.00,,,0.00,369,Wunderground v.1.15,2013-04-23 14:51:00,
2013-04-23 09:56:00,23.8,19.7,30.25,NW,304,9.0,16.0,84,0.00,,,0.00,478,Wunderground v.1.15,2013-04-23 14:56:00,
2013-04-23 10:01:00,23.9,19.8,30.25,NNW,344,8.0,12.0,84,0.00,,,0.00,476,Wunderground v.1.15,2013-04-23 15:01:00,
2013-04-23 10:06:00,24.2,20.1,30.26,NNW,342,8.0,15.0,84,0.00,,,0.00,573,Wunderground v.1.15,2013-04-23 15:06:00,
2013-04-23 10:11:00,24.3,20.2,30.26,North,355,14.0,18.0,84,0.00,,,0.00,492,Wunderground v.1.15,2013-04-23 15:11:00,
2013-04-23 10:16:00,24.3,19.9,30.25,North,350,7.0,18.0,83,0.00,,,0.00,694,Wunderground v.1.15,2013-04-23 15:16:00,
2013-04-23 10:21:00,24.6,20.2,30.26,NW,325,13.0,19.0,83,0.00,,,0.00,710,Wunderground v.1.15,2013-04-23 15:21:00,
2013-04-23 10:26:00,24.9,20.5,30.25,NNW,331,11.0,19.0,83,0.00,,,0.00,826,Wunderground v.1.15,2013-04-23 15:26:00,
2013-04-23 10:31:00,25.2,20.5,30.25,North,5,13.0,18.0,82,0.00,,,0.00,613,Wunderground v.1.15,2013-04-23 15:31:00,
2013-04-23 10:36:00,25.1,20.1,30.25,NNW,342,16.0,19.0,81,0.00,,,0.00,694,Wunderground v.1.15,2013-04-23 15:36:00,
2013-04-23 10:41:00,25.4,20.4,30.26,NNW,338,10.0,16.0,81,0.00,,,0.00,758,Wunderground v.1.15,2013-04-23 15:41:00,
2013-04-23 10:46:00,25.4,20.4,30.26,North,355,16.0,18.0,81,0.00,,,0.00,694,Wunderground v.1.15,2013-04-23 15:46:00,
2013-04-23 10:51:00,25.2,19.9,30.26,North,360,11.0,12.0,80,0.00,,,0.00,675,Wunderground v.1.15,2013-04-23 15:51:00,
2013-04-23 10:56:00,25.8,20.8,30.26,NW,321,15.0,19.0,81,0.00,,,0.00,872,Wunderground v.1.15,2013-04-23 15:56:00,
2013-04-23 11:01:00,25.5,19.9,30.25,NNW,344,11.0,18.0,79,0.00,,,0.00,835,Wunderground v.1.15,2013-04-23 16:01:00,
2013-04-23 11:06:00,25.6,20.0,30.25,NNW,329,10.0,20.0,79,0.00,,,0.00,854,Wunderground v.1.15,2013-04-23 16:06:00,
2013-04-23 11:11:00,25.9,20.6,30.24,NNW,342,18.0,18.0,80,0.00,,,0.00,923,Wunderground v.1.15,2013-04-23 16:11:00,
2013-04-23 11:16:00,26.2,20.6,30.25,NNW,346,16.0,22.0,79,0.00,,,0.00,896,Wunderground v.1.15,2013-04-23 16:16:00,
2013-04-23 11:21:00,26.2,20.3,30.25,North,351,16.0,21.0,78,0.00,,,0.00,988,Wunderground v.1.15,2013-04-23 16:21:00,
2013-04-23 11:26:00,26.0,19.8,30.26,NNW,345,14.0,23.0,77,0.00,,,0.00,933,Wunderground v.1.15,2013-04-23 16:26:00,
2013-04-23 11:31:00,25.9,19.7,30.26,North,355,10.0,13.0,77,0.00,,,0.00,621,Wunderground v.1.15,2013-04-23 16:31:00,
2013-04-23 11:36:00,26.4,20.5,30.26,NNW,346,16.0,17.0,78,0.00,,,0.00,914,Wunderground v.1.15,2013-04-23 16:36:00,
2013-04-23 11:41:00,26.7,20.5,30.25,NNW,348,14.0,22.0,77,0.00,,,0.00,812,Wunderground v.1.15,2013-04-23 16:41:00,
2013-04-23 11:46:00,26.2,19.4,30.25,North,5,13.0,22.0,75,0.00,,,0.00,932,Wunderground v.1.15,2013-04-23 16:46:00,
2013-04-23 11:51:00,26.4,20.2,30.25,NNW,346,7.0,18.0,77,0.00,,,0.01,926,Wunderground v.1.15,2013-04-23 16:51:00,
2013-04-23 11:56:00,27.0,20.7,30.25,NNW,338,14.0,18.0,77,0.00,,,0.01,1016,Wunderground v.1.15,2013-04-23 16:56:00,
2013-04-23 12:01:00,27.0,20.4,30.25,North,355,17.0,18.0,76,0.00,,,0.01,853,Wunderground v.1.15,2013-04-23 17:01:00,
2013-04-23 12:06:00,26.3,19.5,30.26,North,355,11.0,24.0,75,0.00,,,0.01,573,Wunderground v.1.15,2013-04-23 17:06:00,
2013-04-23 12:11:00,26.5,19.6,30.26,North,355,13.0,18.0,75,0.00,,,0.01,606,Wunderground v.1.15,2013-04-23 17:11:00,
2013-04-23 12:16:00,26.7,19.5,30.25,NNE,17,10.0,23.0,74,0.00,,,0.01,918,Wunderground v.1.15,2013-04-23 17:16:00,
2013-04-23 12:21:00,27.2,20.6,30.25,North,355,12.0,17.0,76,0.00,,,0.01,1194,Wunderground v.1.15,2013-04-23 17:21:00,
2013-04-23 12:26:00,27.5,20.6,30.24,NNW,331,17.0,17.0,75,0.00,,,0.02,1113,Wunderground v.1.15,2013-04-23 17:26:00,
2013-04-23 12:31:00,27.6,20.7,30.25,NW,319,10.0,21.0,75,0.00,,,0.02,1125,Wunderground v.1.15,2013-04-23 17:31:00,
2013-04-23 12:36:00,27.8,20.6,30.25,NNW,346,15.0,21.0,74,0.04,,,0.03,1025,Wunderground v.1.15,2013-04-23 17:36:00,
2013-04-23 12:41:00,27.6,20.1,30.25,North,360,14.0,21.0,73,0.04,,,0.03,874,Wunderground v.1.15,2013-04-23 17:41:00,
2013-04-23 12:46:00,27.3,20.1,30.25,North,5,6.0,21.0,74,0.04,,,0.03,584,Wunderground v.1.15,2013-04-23 17:46:00,
2013-04-23 12:51:00,27.2,20.6,30.25,North,9,16.0,18.0,76,0.04,,,0.03,580,Wunderground v.1.15,2013-04-23 17:51:00,
2013-04-23 12:56:00,27.4,20.5,30.24,NNW,335,9.0,19.0,75,0.00,,,0.03,916,Wunderground v.1.15,2013-04-23 17:56:00,
2013-04-23 13:01:00,28.6,21.7,30.23,NNW,342,8.0,17.0,75,0.00,,,0.04,962,Wunderground v.1.15,2013-04-23 18:01:00,
2013-04-23 13:06:00,28.4,21.5,30.23,NW,326,10.0,17.0,75,0.00,,,0.04,889,Wunderground v.1.15,2013-04-23 18:06:00,
2013-04-23 13:11:00,28.4,21.5,30.24,NNW,341,9.0,13.0,75,0.00,,,0.04,728,Wunderground v.1.15,2013-04-23 18:11:00,
2013-04-23 13:16:00,28.7,21.8,30.23,NNW,346,11.0,20.0,75,0.00,,,0.04,751,Wunderground v.1.15,2013-04-23 18:16:00,
2013-04-23 13:21:00,28.5,21.3,30.24,NNW,334,13.0,16.0,74,0.00,,,0.04,856,Wunderground v.1.15,2013-04-23 18:21:00,
2013-04-23 13:26:00,28.8,21.6,30.23,North,355,7.0,19.0,74,0.00,,,0.04,995,Wunderground v.1.15,2013-04-23 18:26:00,
2013-04-23 13:31:00,28.9,21.0,30.22,North,355,16.0,17.0,72,0.00,,,0.05,914,Wunderground v.1.15,2013-04-23 18:31:00,
2013-04-23 13:36:00,28.9,21.3,30.22,NW,317,12.0,20.0,73,0.00,,,0.05,977,Wunderground v.1.15,2013-04-23 18:36:00,
2013-04-23 13:41:00,29.4,21.5,30.23,NNW,337,15.0,16.0,72,0.00,,,0.05,979,Wunderground v.1.15,2013-04-23 18:41:00,
2013-04-23 13:46:00,29.1,21.2,30.23,North,5,16.0,20.0,72,0.00,,,0.06,916,Wunderground v.1.15,2013-04-23 18:46:00,
2013-04-23 13:51:00,29.4,21.8,30.22,North,5,7.0,12.0,73,0.00,,,0.06,1034,Wunderground v.1.15,2013-04-23 18:51:00,
2013-04-23 13:56:00,29.7,21.8,30.22,NNE,15,9.0,17.0,72,0.00,,,0.06,1041,Wunderground v.1.15,2013-04-23 18:56:00,
2013-04-23 14:01:00,29.9,22.0,30.22,North,355,8.0,13.0,72,0.00,,,0.06,962,Wunderground v.1.15,2013-04-23 19:01:00,
2013-04-23 14:06:00,30.1,21.8,30.22,NNW,343,14.0,16.0,71,0.00,,,0.06,816,Wunderground v.1.15,2013-04-23 19:06:00,
2013-04-23 14:11:00,30.1,21.8,30.22,NW,324,12.0,12.0,71,0.00,,,0.07,817,Wunderground v.1.15,2013-04-23 19:11:00,
2013-04-23 14:16:00,30.3,21.7,30.22,NNW,334,9.0,18.0,70,0.00,,,0.07,1005,Wunderground v.1.15,2013-04-23 19:16:00,
2013-04-23 14:21:00,30.8,22.5,30.22,NNW,339,11.0,16.0,71,0.00,,,0.07,962,Wunderground v.1.15,2013-04-23 19:21:00,
2013-04-23 14:26:00,30.6,22.0,30.22,NNW,341,12.0,17.0,70,0.00,,,0.07,932,Wunderground v.1.15,2013-04-23 19:26:00,
2013-04-23 14:31:00,31.4,22.7,30.22,NNW,344,10.0,15.0,70,0.00,,,0.07,967,Wunderground v.1.15,2013-04-23 19:31:00,
2013-04-23 14:36:00,31.2,22.5,30.22,WNW,302,9.0,17.0,70,0.00,,,0.08,893,Wunderground v.1.15,2013-04-23 19:36:00,
2013-04-23 14:41:00,31.4,22.1,30.21,NNW,332,8.0,17.0,68,0.00,,,0.08,984,Wunderground v.1.15,2013-04-23 19:41:00,
2013-04-23 14:46:00,31.5,21.4,30.21,North,350,7.0,18.0,66,0.00,,,0.08,969,Wunderground v.1.15,2013-04-23 19:46:00,
2013-04-23 14:51:00,31.7,22.0,30.21,NNW,348,9.0,11.0,67,0.00,,,0.08,974,Wunderground v.1.15,2013-04-23 19:51:00,
2013-04-23 14:56:00,32.0,22.3,30.20,NNW,327,9.0,16.0,67,0.00,,,0.08,912,Wunderground v.1.15,2013-04-23 19:56:00,
2013-04-23 15:01:00,31.9,21.8,30.20,North,355,8.0,13.0,66,0.00,,,0.08,967,Wunderground v.1.15,2013-04-23 20:01:00,
2013-04-23 15:06:00,32.7,23.3,30.20,North,5,5.0,17.0,68,0.00,,,0.08,921,Wunderground v.1.15,2013-04-23 20:06:00,
2013-04-23 15:11:00,32.5,22.4,30.20,North,355,8.0,15.0,66,0.00,,,0.08,921,Wunderground v.1.15,2013-04-23 20:11:00,
2013-04-23 15:16:00,32.1,22.4,30.20,North,355,7.0,16.0,67,0.00,,,0.09,476,Wunderground v.1.15,2013-04-23 20:16:00,
2013-04-23 15:21:00,32.2,22.5,30.19,North,355,18.0,19.0,67,0.00,,,0.09,935,Wunderground v.1.15,2013-04-23 20:21:00,
2013-04-23 15:26:00,32.1,21.7,30.19,NNW,348,8.0,19.0,65,0.00,,,0.09,779,Wunderground v.1.15,2013-04-23 20:26:00,
2013-04-23 15:31:00,32.5,22.4,30.19,North,355,13.0,17.0,66,0.00,,,0.09,916,Wunderground v.1.15,2013-04-23 20:31:00,
2013-04-23 15:36:00,32.3,21.8,30.20,NNW,331,16.0,19.0,65,0.00,,,0.09,784,Wunderground v.1.15,2013-04-23 20:36:00,
2013-04-23 15:41:00,32.3,21.8,30.20,North,355,8.0,15.0,65,0.00,,,0.09,775,Wunderground v.1.15,2013-04-23 20:41:00,
2013-04-23 15:46:00,32.8,22.7,30.20,North,350,5.0,15.0,66,0.00,,,0.09,944,Wunderground v.1.15,2013-04-23 20:46:00,
2013-04-23 15:51:00,33.8,23.6,30.19,NNW,347,5.0,11.0,66,0.00,,,0.09,946,Wunderground v.1.15,2013-04-23 20:51:00,
2013-04-23 15:56:00,33.2,22.3,30.19,NW,323,10.0,15.0,64,0.00,,,0.09,780,Wunderground v.1.15,2013-04-23 20:56:00,
2013-04-23 16:01:00,33.5,23.7,30.19,North,5,15.0,17.0,67,0.00,,,0.09,881,Wunderground v.1.15,2013-04-23 21:01:00,
2013-04-23 16:06:00,33.7,23.5,30.19,NNW,329,7.0,17.0,66,0.00,,,0.09,823,Wunderground v.1.15,2013-04-23 21:06:00,
2013-04-23 16:11:00,34.3,24.1,30.19,NNE,21,7.0,13.0,66,0.00,,,0.09,886,Wunderground v.1.15,2013-04-23 21:11:00,
2013-04-23 16:16:00,34.4,24.2,30.19,NNE,20,9.0,17.0,66,0.00,,,0.09,703,Wunderground v.1.15,2013-04-23 21:16:00,
2013-04-23 16:21:00,34.1,23.9,30.18,NNW,343,7.0,15.0,66,0.00,,,0.09,770,Wunderground v.1.15,2013-04-23 21:21:00,
2013-04-23 16:26:00,33.8,23.6,30.18,North,355,10.0,15.0,66,0.00,,,0.09,431,Wunderground v.1.15,2013-04-23 21:26:00,
2013-04-23 16:31:00,33.5,23.0,30.18,NNW,340,8.0,14.0,65,0.00,,,0.09,357,Wunderground v.1.15,2013-04-23 21:31:00,
2013-04-23 16:36:00,33.7,22.8,30.18,NNW,328,8.0,14.0,64,0.00,,,0.09,322,Wunderground v.1.15,2013-04-23 21:36:00,
2013-04-23 16:41:00,33.9,23.7,30.18,NNW,327,9.0,12.0,66,0.00,,,0.09,842,Wunderground v.1.15,2013-04-23 21:41:00,
2013-04-23 16:46:00,34.4,23.8,30.18,NW,315,3.0,14.0,65,0.00,,,0.09,912,Wunderground v.1.15,2013-04-23 21:46:00,
2013-04-23 16:51:00,35.1,24.5,30.18,NW,326,5.0,12.0,65,0.00,,,0.10,1018,Wunderground v.1.15,2013-04-23 21:51:00,
2013-04-23 16:56:00,35.2,24.2,30.18,NNW,339,7.0,14.0,64,0.00,,,0.10,441,Wunderground v.1.15,2013-04-23 21:56:00,
2013-04-23 17:01:00,34.3,23.7,30.17,NNW,348,11.0,13.0,65,0.00,,,0.10,406,Wunderground v.1.15,2013-04-23 22:01:00,
2013-04-23 17:06:00,34.1,23.6,30.17,NNW,332,6.0,15.0,65,0.00,,,0.10,302,Wunderground v.1.15,2013-04-23 22:06:00,
2013-04-23 17:11:00,34.4,24.2,30.17,NNE,13,6.0,11.0,66,0.00,,,0.10,429,Wunderground v.1.15,2013-04-23 22:11:00,
2013-04-23 17:16:00,34.8,24.2,30.17,NNE,21,7.0,14.0,65,0.00,,,0.10,675,Wunderground v.1.15,2013-04-23 22:16:00,
2013-04-23 17:21:00,34.6,24.0,30.17,North,350,6.0,10.0,65,0.00,,,0.10,575,Wunderground v.1.15,2013-04-23 22:21:00,
2013-04-23 17:26:00,34.5,23.9,30.17,NNE,12,6.0,15.0,65,0.00,,,0.10,636,Wunderground v.1.15,2013-04-23 22:26:00,
2013-04-23 17:31:00,34.9,24.3,30.16,NNW,345,6.0,11.0,65,0.00,,,0.10,557,Wunderground v.1.15,2013-04-23 22:31:00,
2013-04-23 17:36:00,35.2,23.9,30.16,NNW,344,10.0,15.0,63,0.00,,,0.10,561,Wunderground v.1.15,2013-04-23 22:36:00,
2013-04-23 17:41:00,34.9,24.3,30.16,NNW,345,8.0,11.0,65,0.00,,,0.10,343,Wunderground v.1.15,2013-04-23 22:41:00,
2013-04-23 17:46:00,35.2,23.9,30.16,NNW,330,13.0,14.0,63,0.00,,,0.10,598,Wunderground v.1.15,2013-04-23 22:46:00,
2013-04-23 17:51:00,35.0,23.7,30.16,North,355,4.0,10.0,63,0.00,,,0.10,438,Wunderground v.1.15,2013-04-23 22:51:00,
2013-04-23 17:56:00,35.2,24.2,30.16,NNW,336,12.0,13.0,64,0.00,,,0.10,390,Wunderground v.1.15,2013-04-23 22:56:00,
2013-04-23 18:01:00,35.0,24.0,30.16,NNW,344,8.0,14.0,64,0.00,,,0.10,461,Wunderground v.1.15,2013-04-23 23:01:00,
2013-04-23 18:06:00,35.3,24.3,30.16,NW,314,6.0,15.0,64,0.00,,,0.10,429,Wunderground v.1.15,2013-04-23 23:06:00,
2013-04-23 18:11:00,34.9,23.2,30.16,North,360,7.0,12.0,62,0.00,,,0.10,192,Wunderground v.1.15,2013-04-23 23:11:00,
2013-04-23 18:16:00,34.8,23.9,30.16,NNW,335,11.0,12.0,64,0.00,,,0.10,454,Wunderground v.1.15,2013-04-23 23:16:00,
2013-04-23 18:21:00,34.9,23.6,30.16,NNW,333,7.0,14.0,63,0.00,,,0.10,199,Wunderground v.1.15,2013-04-23 23:21:00,
2013-04-23 18:26:00,35.0,23.7,30.16,North,351,7.0,14.0,63,0.00,,,0.10,151,Wunderground v.1.15,2013-04-23 23:26:00,
2013-04-23 18:31:00,34.9,23.9,30.16,NNW,346,8.0,13.0,64,0.00,,,0.10,346,Wunderground v.1.15,2013-04-23 23:31:00,
2013-04-23 18:36:00,35.0,23.3,30.16,North,5,11.0,15.0,62,0.00,,,0.10,93,Wunderground v.1.15,2013-04-23 23:36:00,
2013-04-23 18:41:00,35.0,23.7,30.16,North,5,9.0,9.0,63,0.00,,,0.10,320,Wunderground v.1.15,2013-04-23 23:41:00,
2013-04-23 18:46:00,35.0,22.9,30.16,North,5,8.0,15.0,61,0.00,,,0.10,299,Wunderground v.1.15,2013-04-23 23:46:00,
2013-04-23 18:51:00,35.0,22.9,30.16,NNW,340,7.0,13.0,61,0.00,,,0.10,285,Wunderground v.1.15,2013-04-23 23:51:00,
2013-04-23 18:56:00,34.8,23.1,30.16,NNW,338,10.0,13.0,62,0.00,,,0.10,258,Wunderground v.1.15,2013-04-23 23:56:00,
2013-04-23 19:01:00,34.8,23.1,30.16,NNW,339,9.0,12.0,62,0.00,,,0.10,234,Wunderground v.1.15,2013-04-24 00:01:00,
2013-04-23 19:07:00,34.6,22.9,30.15,North,9,6.0,13.0,62,0.00,,,0.10,51,Wunderground v.1.15,2013-04-24 00:07:00,
2013-04-23 19:12:00,34.4,23.1,30.15,WNW,295,5.0,9.0,63,0.00,,,0.10,47,Wunderground v.1.15,2013-04-24 00:12:00,
2013-04-23 19:17:00,34.3,23.0,30.16,North,355,7.0,9.0,63,0.00,,,0.10,44,Wunderground v.1.15,2013-04-24 00:17:00,
2013-04-23 19:22:00,34.3,23.0,30.15,North,5,8.0,8.0,63,0.00,,,0.10,42,Wunderground v.1.15,2013-04-24 00:22:00,
2013-04-23 19:27:00,34.2,23.3,30.15,NNW,347,6.0,8.0,64,0.00,,,0.10,42,Wunderground v.1.15,2013-04-24 00:27:00,
2013-04-23 19:32:00,34.1,22.8,30.16,NNW,335,8.0,8.0,63,0.00,,,0.10,40,Wunderground v.1.15,2013-04-24 00:32:00,
2013-04-23 19:37:00,34.0,22.7,30.16,NNW,348,9.0,9.0,63,0.00,,,0.10,33,Wunderground v.1.15,2013-04-24 00:37:00,
2013-04-23 19:42:00,33.9,23.0,30.16,NNW,346,4.0,7.0,64,0.00,,,0.10,32,Wunderground v.1.15,2013-04-24 00:42:00,
2013-04-23 19:47:00,33.7,23.2,30.15,NNW,342,7.0,10.0,65,0.00,,,0.10,28,Wunderground v.1.15,2013-04-24 00:47:00,
2013-04-23 19:52:00,33.5,22.6,30.15,NNW,344,5.0,9.0,64,0.00,,,0.10,26,Wunderground v.1.15,2013-04-24 00:52:00,
2013-04-23 19:57:00,33.4,22.5,30.15,NNW,334,5.0,9.0,64,0.00,,,0.10,23,Wunderground v.1.15,2013-04-24 00:57:00,
2013-04-23 20:02:00,33.2,22.7,30.15,North,355,4.0,7.0,65,0.00,,,0.10,19,Wunderground v.1.15,2013-04-24 01:02:00,
2013-04-23 20:07:00,32.9,22.4,30.16,North,355,2.0,7.0,65,0.00,,,0.10,16,Wunderground v.1.15,2013-04-24 01:07:00,
2013-04-23 20:12:00,32.6,22.5,30.16,North,355,1.0,4.0,66,0.00,,,0.10,12,Wunderground v.1.15,2013-04-24 01:12:00,
2013-04-23 20:17:00,32.4,22.3,30.16,North,355,0.0,4.0,66,0.00,,,0.10,9,Wunderground v.1.15,2013-04-24 01:17:00,
2013-04-23 20:22:00,32.1,22.0,30.16,North,355,2.0,2.0,66,0.00,,,0.10,5,Wunderground v.1.15,2013-04-24 01:22:00,
2013-04-23 20:27:00,31.9,22.2,30.16,North,355,0.0,2.0,67,0.00,,,0.10,0,Wunderground v.1.15,2013-04-24 01:27:00,
2013-04-23 20:32:00,31.4,22.1,30.16,North,355,1.0,1.0,68,0.00,,,0.10,0,Wunderground v.1.15,2013-04-24 01:32:00,
2013-04-23 20:37:00,30.9,21.9,30.16,North,355,0.0,2.0,69,0.00,,,0.10,0,Wunderground v.1.15,2013-04-24 01:37:00,
2013-04-23 20:42:00,30.2,21.6,30.16,North,355,0.0,0.0,70,0.00,,,0.10,0,Wunderground v.1.15,2013-04-24 01:42:00,
2013-04-23 20:47:00,29.5,21.3,30.16,North,355,0.0,1.0,71,0.00,,,0.10,0,Wunderground v.1.15,2013-04-24 01:47:00,
2013-04-23 20:52:00,28.9,21.3,30.17,North,355,0.0,0.0,73,0.00,,,0.10,0,Wunderground v.1.15,2013-04-24 01:52:00,
2013-04-23 20:57:00,28.5,20.9,30.16,North,355,0.0,0.0,73,0.00,,,0.10,0,Wunderground v.1.15,2013-04-24 01:57:00,
2013-04-23 21:02:00,28.1,20.9,30.17,North,355,0.0,0.0,74,0.00,,,0.10,0,Wunderground v.1.15,2013-04-24 02:02:00,
2013-04-23 21:07:00,27.7,20.8,30.17,North,355,0.0,0.0,75,0.00,,,0.10,0,Wunderground v.1.15,2013-04-24 02:07:00,
2013-04-23 21:12:00,27.4,20.8,30.17,North,355,0.0,0.0,76,0.00,,,0.10,0,Wunderground v.1.15,2013-04-24 02:12:00,
2013-04-23 21:17:00,27.0,20.7,30.17,North,355,0.0,1.0,77,0.00,,,0.10,0,Wunderground v.1.15,2013-04-24 02:17:00,
2013-04-23 21:22:00,27.0,21.1,30.17,North,355,0.0,1.0,78,0.00,,,0.10,0,Wunderground v.1.15,2013-04-24 02:22:00,
2013-04-23 21:28:00,27.0,21.4,30.17,North,355,0.0,1.0,79,0.00,,,0.10,0,Wunderground v.1.15,2013-04-24 02:28:00,
2013-04-23 21:33:00,26.9,21.0,30.17,North,355,0.0,0.0,78,0.00,,,0.10,0,Wunderground v.1.15,2013-04-24 02:33:00,
2013-04-23 21:39:00,25.8,19.9,30.17,North,355,0.0,0.0,78,0.00,,,0.10,0,Wunderground v.1.15,2013-04-24 02:39:00,
2013-04-23 21:44:00,25.2,19.9,30.17,North,355,0.0,0.0,80,0.00,,,0.10,0,Wunderground v.1.15,2013-04-24 02:44:00,
2013-04-23 21:50:00,25.0,20.0,30.17,North,355,0.0,0.0,81,0.00,,,0.10,0,Wunderground v.1.15,2013-04-24 02:50:00,
2013-04-23 21:55:00,24.7,20.0,30.17,North,355,0.0,1.0,82,0.00,,,0.10,0,Wunderground v.1.15,2013-04-24 02:55:00,
2013-04-23 22:00:00,23.9,18.9,30.17,North,355,0.0,0.0,81,0.00,,,0.10,0,Wunderground v.1.15,2013-04-24 03:00:00,
2013-04-23 22:05:00,23.5,18.8,30.17,North,355,0.0,0.0,82,0.00,,,0.10,0,Wunderground v.1.15,2013-04-24 03:05:00,
2013-04-23 22:10:00,23.4,19.0,30.17,North,355,0.0,0.0,83,0.00,,,0.10,0,Wunderground v.1.15,2013-04-24 03:10:00,
2013-04-23 22:15:00,23.1,19.0,30.17,North,355,2.0,2.0,84,0.00,,,0.10,0,Wunderground v.1.15,2013-04-24 03:15:00,
2013-04-23 22:20:00,22.9,18.8,30.17,West,260,2.0,2.0,84,0.00,,,0.10,0,Wunderground v.1.15,2013-04-24 03:20:00,
2013-04-23 22:26:00,22.2,18.1,30.17,West,259,1.0,3.0,84,0.00,,,0.10,0,Wunderground v.1.15,2013-04-24 03:26:00,
2013-04-23 22:31:00,22.3,18.5,30.18,West,259,1.0,2.0,85,0.00,,,0.10,0,Wunderground v.1.15,2013-04-24 03:31:00,
2013-04-23 22:36:00,23.1,19.5,30.17,West,259,3.0,3.0,86,0.00,,,0.10,0,Wunderground v.1.15,2013-04-24 03:36:00,
2013-04-23 22:41:00,23.5,19.9,30.18,WSW,258,3.0,3.0,86,0.00,,,0.10,0,Wunderground v.1.15,2013-04-24 03:41:00,
2013-04-23 22:46:00,23.8,20.2,30.18,WSW,248,3.0,4.0,86,0.00,,,0.10,0,Wunderground v.1.15,2013-04-24 03:46:00,
2013-04-23 22:51:00,23.7,20.1,30.17,WSW,248,3.0,3.0,86,0.00,,,0.10,0,Wunderground v.1.15,2013-04-24 03:51:00,
2013-04-23 22:57:00,23.4,19.8,30.17,WSW,248,2.0,3.0,86,0.00,,,0.10,0,Wunderground v.1.15,2013-04-24 03:57:00,
2013-04-23 23:01:00,23.1,19.5,30.17,WSW,248,2.0,3.0,86,0.00,,,0.10,0,Wunderground v.1.15,2013-04-24 04:01:00,
2013-04-23 23:06:00,22.6,19.0,30.17,WSW,248,2.0,3.0,86,0.00,,,0.10,0,Wunderground v.1.15,2013-04-24 04:06:00,
2013-04-23 23:11:00,21.7,18.2,30.17,WSW,248,3.0,3.0,86,0.00,,,0.10,0,Wunderground v.1.15,2013-04-24 04:11:00,
2013-04-23 23:16:00,20.9,17.4,30.17,WSW,244,3.0,3.0,86,0.00,,,0.10,0,Wunderground v.1.15,2013-04-24 04:16:00,
2013-04-23 23:21:00,20.3,16.8,30.17,SW,232,3.0,4.0,86,0.00,,,0.10,0,Wunderground v.1.15,2013-04-24 04:21:00,
2013-04-23 23:26:00,20.0,16.8,30.17,SW,232,1.0,4.0,87,0.00,,,0.10,0,Wunderground v.1.15,2013-04-24 04:26:00,
2013-04-23 23:31:00,20.1,16.9,30.17,SW,232,1.0,2.0,87,0.00,,,0.10,0,Wunderground v.1.15,2013-04-24 04:31:00,
2013-04-23 23:36:00,20.4,17.4,30.17,SW,232,1.0,2.0,88,0.00,,,0.10,0,Wunderground v.1.15,2013-04-24 04:36:00,
2013-04-23 23:41:00,20.5,17.5,30.17,SW,232,0.0,1.0,88,0.00,,,0.10,0,Wunderground v.1.15,2013-04-24 04:41:00,
2013-04-23 23:46:00,20.0,16.8,30.17,SW,232,3.0,3.0,87,0.00,,,0.10,0,Wunderground v.1.15,2013-04-24 04:46:00,
2013-04-23 23:51:00,19.4,16.2,30.17,SW,232,2.0,2.0,87,0.00,,,0.10,0,Wunderground v.1.15,2013-04-24 04:51:00,
2013-04-23 23:56:00,19.0,16.0,30.17,SW,232,2.0,2.0,88,0.00,,,0.10,0,Wunderground v.1.15,2013-04-24 04:56:00,